Time;durP1;ratioP1;P1;durP2;ratioP2;P2;SDS_P1;SDS_P2;PMS_P1;PMS_P2;Temp;Humidity;BMP_temperature;BMP_pressure;BME280_temperature;BME280_humidity;BME280_pressure;Samples;Min_cycle;Max_cycle;Signal;HPM_P1;HPM_P2
2021/12/22 00:01:14;;;;;;;18.90;12.13;;;0.90;95.60;;;;;;5113929;28;20820;-66
2021/12/22 00:03:46;;;;;;;21.73;12.03;;;0.90;95.70;;;;;;5114046;28;20476;-66
2021/12/22 00:06:18;;;;;;;13.80;10.83;;;1.00;95.90;;;;;;5113891;28;20428;-66
2021/12/22 00:08:46;;;;;;;18.00;11.00;;;1.00;96.00;;;;;;5113792;28;20474;-66
2021/12/22 00:11:12;;;;;;;17.30;11.20;;;1.00;96.00;;;;;;5113505;28;20456;-66
2021/12/22 00:13:39;;;;;;;18.70;12.03;;;1.00;96.00;;;;;;5113730;28;20464;-67
2021/12/22 00:16:06;;;;;;;13.43;10.90;;;1.00;96.00;;;;;;5113752;28;20450;-66
2021/12/22 00:18:33;;;;;;;17.97;11.47;;;1.00;96.00;;;;;;5113679;28;20441;-66
2021/12/22 00:21:01;;;;;;;18.20;11.63;;;1.00;96.00;;;;;;5113688;28;20457;-67
2021/12/22 00:23:29;;;;;;;19.60;11.93;;;1.00;96.10;;;;;;5114547;28;20803;-67
2021/12/22 00:25:56;;;;;;;17.20;11.80;;;1.00;96.10;;;;;;5113473;28;20418;-67
2021/12/22 00:28:23;;;;;;;17.13;11.33;;;1.00;96.20;;;;;;5113587;28;20549;-66
2021/12/22 00:30:51;;;;;;;16.07;11.03;;;1.10;96.30;;;;;;5113372;28;20958;-66
2021/12/22 00:33:18;;;;;;;16.70;11.47;;;1.10;96.30;;;;;;5113557;28;20466;-66
2021/12/22 00:35:45;;;;;;;16.27;11.50;;;1.00;96.20;;;;;;5113598;28;20451;-66
2021/12/22 00:38:14;;;;;;;16.63;11.67;;;1.00;96.60;;;;;;5113541;28;20439;-66
2021/12/22 00:40:43;;;;;;;14.40;9.97;;;1.10;96.40;;;;;;5113562;28;20450;-66
2021/12/22 00:43:11;;;;;;;14.10;11.30;;;1.10;96.40;;;;;;5113466;28;20830;-66
2021/12/22 00:45:38;;;;;;;16.83;11.00;;;1.10;96.40;;;;;;5113478;28;20457;-66
2021/12/22 00:48:07;;;;;;;17.30;10.27;;;1.10;96.30;;;;;;5113402;28;20575;-66
2021/12/22 00:50:35;;;;;;;18.43;11.20;;;1.10;96.30;;;;;;5113471;28;20469;-66
2021/12/22 00:53:02;;;;;;;14.47;10.20;;;1.10;96.30;;;;;;5113340;28;20470;-66
2021/12/22 00:55:29;;;;;;;16.23;10.90;;;1.10;96.30;;;;;;5113390;28;20454;-66
2021/12/22 00:57:57;;;;;;;13.00;10.57;;;1.20;96.40;;;;;;5113371;28;20452;-66
2021/12/22 01:00:26;;;;;;;18.53;11.10;;;1.10;96.30;;;;;;5112979;28;20462;-66
2021/12/22 01:02:54;;;;;;;19.53;12.07;;;1.20;96.40;;;;;;5116346;28;20474;-66
2021/12/22 01:05:21;;;;;;;21.80;11.57;;;1.10;96.40;;;;;;5117043;28;20839;-66
2021/12/22 01:07:49;;;;;;;15.67;10.87;;;1.20;96.60;;;;;;5116903;27;20452;-66
2021/12/22 01:10:20;;;;;;;11.70;8.93;;;1.20;96.60;;;;;;5116925;28;20446;-66
2021/12/22 01:12:47;;;;;;;19.67;10.77;;;1.20;96.50;;;;;;5116500;28;20976;-66
2021/12/22 01:15:15;;;;;;;20.17;9.97;;;1.20;96.50;;;;;;5116815;28;20446;-66
2021/12/22 01:17:46;;;;;;;18.47;11.40;;;1.20;96.50;;;;;;5116868;28;20449;-66
2021/12/22 01:20:21;;;;;;;18.20;10.37;;;1.20;96.40;;;;;;5116826;28;20813;-66
2021/12/22 01:22:49;;;;;;;12.60;10.00;;;1.20;96.40;;;;;;5116632;28;20478;-67
2021/12/22 01:25:19;;;;;;;16.00;10.50;;;1.20;96.20;;;;;;5116671;28;20501;-67
2021/12/22 01:27:46;;;;;;;16.27;10.17;;;1.20;96.10;;;;;;5116360;28;20979;-66
2021/12/22 01:30:19;;;;;;;17.77;10.10;;;1.20;96.00;;;;;;5116291;28;20484;-66
2021/12/22 01:32:46;;;;;;;16.53;10.13;;;1.20;95.90;;;;;;5116505;28;20467;-66
2021/12/22 01:35:15;;;;;;;16.60;8.90;;;1.10;95.70;;;;;;5116424;28;20821;-66
2021/12/22 01:37:41;;;;;;;13.60;9.90;;;1.20;95.70;;;;;;5116055;28;20448;-66
2021/12/22 01:40:11;;;;;;;18.67;10.40;;;1.10;95.70;;;;;;5116328;28;20453;-66
2021/12/22 01:42:39;;;;;;;12.20;8.73;;;1.10;95.70;;;;;;5116121;28;20465;-66
2021/12/22 01:45:26;;;;;;;14.80;9.67;;;1.10;95.70;;;;;;5116254;28;20467;-66
2021/12/22 01:50:42;;;;;;;14.13;9.50;;;1.10;95.40;;;;;;5116207;28;20398;-66
2021/12/22 01:53:36;;;;;;;14.33;9.93;;;1.10;95.40;;;;;;5115688;27;20964;-66
2021/12/22 01:56:13;;;;;;;17.90;9.83;;;1.10;95.50;;;;;;5116097;28;20476;-66
2021/12/22 01:58:43;;;;;;;15.73;9.33;;;1.00;95.50;;;;;;5115632;28;20453;-66
2021/12/22 02:01:10;;;;;;;13.17;9.90;;;1.10;95.60;;;;;;5115986;28;20429;-66
2021/12/22 02:03:40;;;;;;;16.13;9.33;;;1.00;95.60;;;;;;5115848;28;20492;-67
2021/12/22 02:06:08;;;;;;;19.43;10.27;;;1.10;95.80;;;;;;5115798;27;20530;-67
2021/12/22 02:08:36;;;;;;;13.20;9.30;;;1.10;96.20;;;;;;5115670;28;20587;-67
2021/12/22 02:11:03;;;;;;;10.43;9.33;;;1.00;95.80;;;;;;5115719;28;20488;-67
2021/12/22 02:13:34;;;;;;;10.77;8.27;;;1.10;95.90;;;;;;5114216;28;20474;-67
2021/12/22 02:16:06;;;;;;;12.03;8.23;;;1.10;96.00;;;;;;5115705;28;20438;-67
2021/12/22 02:18:34;;;;;;;15.90;9.63;;;1.10;96.10;;;;;;5115698;28;20431;-67
2021/12/22 02:21:03;;;;;;;12.57;9.87;;;1.10;96.10;;;;;;5115516;28;20466;-67
2021/12/22 02:23:30;;;;;;;12.73;9.30;;;1.10;96.20;;;;;;5115409;28;20466;-67
2021/12/22 02:26:01;;;;;;;14.23;9.97;;;1.10;96.20;;;;;;5115420;28;20441;-67
2021/12/22 02:28:32;;;;;;;13.67;9.40;;;1.10;96.20;;;;;;5115343;28;20444;-67
2021/12/22 02:30:59;;;;;;;13.33;9.00;;;1.10;96.10;;;;;;5115378;28;20451;-67
2021/12/22 02:33:34;;;;;;;15.20;9.73;;;1.10;96.00;;;;;;5115196;28;20478;-67
2021/12/22 02:36:09;;;;;;;18.47;9.67;;;1.10;95.90;;;;;;5115260;28;20440;-67
2021/12/22 02:38:39;;;;;;;13.70;9.63;;;1.10;95.80;;;;;;5115618;28;20501;-67
2021/12/22 02:41:09;;;;;;;18.97;8.93;;;1.10;95.80;;;;;;5115134;28;20456;-67
2021/12/22 02:43:43;;;;;;;9.93;8.53;;;1.10;95.80;;;;;;5115039;28;20472;-67
2021/12/22 02:46:10;;;;;;;13.37;9.30;;;1.10;95.70;;;;;;5114775;28;20429;-67
2021/12/22 02:48:37;;;;;;;17.47;9.17;;;1.00;95.70;;;;;;5114987;28;20481;-67
2021/12/22 02:51:05;;;;;;;11.90;8.17;;;1.10;95.70;;;;;;5114964;28;20456;-67
2021/12/22 02:53:40;;;;;;;14.83;10.40;;;1.10;95.70;;;;;;5114828;27;20466;-67
2021/12/22 02:56:17;;;;;;;14.13;9.10;;;1.00;95.70;;;;;;5114593;28;20432;-67
2021/12/22 02:58:56;;;;;;;10.47;8.20;;;1.00;95.80;;;;;;5114561;28;20548;-67
2021/12/22 03:01:39;;;;;;;15.30;9.20;;;1.00;95.80;;;;;;5115260;28;20437;-66
2021/12/22 03:04:12;;;;;;;12.33;8.80;;;1.00;95.80;;;;;;5114688;28;20527;-66
2021/12/22 03:06:47;;;;;;;12.83;8.67;;;1.00;96.00;;;;;;5114774;28;20457;-66
2021/12/22 03:09:18;;;;;;;12.83;9.20;;;1.00;96.00;;;;;;5114620;28;20466;-66
2021/12/22 03:11:45;;;;;;;13.83;8.97;;;1.00;96.10;;;;;;5114643;28;20813;-66
2021/12/22 03:14:12;;;;;;;14.43;8.50;;;1.00;95.90;;;;;;5114505;28;20484;-66
2021/12/22 03:16:42;;;;;;;14.87;8.63;;;1.00;95.90;;;;;;5114545;28;20448;-66
2021/12/22 03:19:09;;;;;;;14.90;9.20;;;1.00;95.90;;;;;;5114563;28;20478;-66
2021/12/22 03:21:36;;;;;;;13.47;8.67;;;1.00;95.90;;;;;;5114436;28;20450;-66
2021/12/22 03:24:04;;;;;;;14.33;8.90;;;1.00;95.90;;;;;;5113732;28;20473;-67
2021/12/22 03:26:31;;;;;;;14.00;8.60;;;1.00;95.90;;;;;;5114323;28;20450;-67
2021/12/22 03:28:58;;;;;;;10.13;8.40;;;1.00;95.80;;;;;;5114263;28;20480;-66
2021/12/22 03:31:25;;;;;;;14.00;9.80;;;0.90;95.60;;;;;;5114321;28;20445;-66
2021/12/22 03:33:52;;;;;;;14.67;9.60;;;0.90;95.50;;;;;;5113841;28;20974;-67
2021/12/22 03:36:19;;;;;;;12.07;8.53;;;0.90;95.50;;;;;;5114186;28;20445;-67
2021/12/22 03:38:47;;;;;;;13.13;8.80;;;0.90;95.40;;;;;;5114162;28;20446;-67
2021/12/22 03:41:16;;;;;;;12.80;8.93;;;0.90;95.50;;;;;;5114122;28;20453;-67
2021/12/22 03:43:42;;;;;;;11.70;9.23;;;0.90;95.40;;;;;;5114007;28;20473;-67
2021/12/22 03:46:09;;;;;;;15.10;8.23;;;0.90;95.50;;;;;;5114577;28;20468;-67
2021/12/22 03:48:36;;;;;;;11.20;8.87;;;0.90;95.60;;;;;;5113964;28;20450;-67
2021/12/22 03:51:03;;;;;;;11.50;8.40;;;0.90;95.80;;;;;;5114075;28;20444;-67
2021/12/22 03:53:30;;;;;;;11.27;7.93;;;0.80;96.00;;;;;;5113932;28;20467;-67
2021/12/22 03:55:57;;;;;;;9.90;7.40;;;0.80;95.70;;;;;;5113676;28;20454;-67
2021/12/22 03:58:25;;;;;;;11.97;9.23;;;0.80;95.80;;;;;;5113768;28;20460;-67
2021/12/22 04:00:54;;;;;;;13.00;8.63;;;0.90;95.90;;;;;;5113662;28;20434;-67
2021/12/22 04:03:24;;;;;;;18.20;8.70;;;0.90;95.80;;;;;;5113821;28;20492;-67
2021/12/22 04:05:51;;;;;;;14.63;9.23;;;0.80;95.70;;;;;;5113890;28;20448;-67
2021/12/22 04:08:18;;;;;;;13.50;8.50;;;0.90;95.70;;;;;;5113812;28;20451;-67
2021/12/22 04:10:46;;;;;;;13.80;8.57;;;0.90;95.60;;;;;;5113483;28;20519;-67
2021/12/22 04:13:13;;;;;;;14.00;8.33;;;0.90;95.70;;;;;;5113741;28;20466;-67
2021/12/22 04:15:42;;;;;;;14.30;8.53;;;0.90;95.60;;;;;;5113793;28;20446;-67
2021/12/22 04:18:10;;;;;;;14.37;8.63;;;0.80;95.60;;;;;;5113805;28;20445;-67
2021/12/22 04:20:36;;;;;;;13.40;8.53;;;0.90;95.60;;;;;;5113721;28;20438;-67
2021/12/22 04:23:04;;;;;;;14.20;9.30;;;0.90;95.60;;;;;;5113645;28;20465;-67
2021/12/22 04:25:32;;;;;;;12.67;7.93;;;0.80;95.70;;;;;;5113424;28;20449;-67
2021/12/22 04:28:03;;;;;;;12.13;8.70;;;0.80;95.80;;;;;;5113688;28;20450;-67
2021/12/22 04:30:32;;;;;;;15.70;8.80;;;0.80;95.90;;;;;;5113813;28;20462;-67
2021/12/22 04:33:01;;;;;;;12.43;8.50;;;0.80;96.00;;;;;;5113826;28;20467;-67
2021/12/22 04:35:28;;;;;;;13.70;8.63;;;0.80;96.00;;;;;;5113644;28;20454;-67
2021/12/22 04:37:55;;;;;;;11.10;8.27;;;0.80;96.10;;;;;;5116937;28;20450;-67
2021/12/22 04:40:22;;;;;;;14.20;9.00;;;0.90;96.20;;;;;;5117237;28;20441;-67
2021/12/22 04:42:49;;;;;;;15.20;8.93;;;0.80;96.20;;;;;;5117440;28;20469;-67
2021/12/22 04:45:16;;;;;;;11.50;8.93;;;0.80;96.20;;;;;;5117420;28;20444;-67
2021/12/22 04:47:44;;;;;;;12.93;8.40;;;0.80;96.20;;;;;;5117417;28;20454;-67
2021/12/22 04:50:16;;;;;;;21.93;10.33;;;0.90;96.20;;;;;;5117232;28;20473;-67
2021/12/22 04:52:50;;;;;;;15.60;8.43;;;0.80;96.20;;;;;;5116884;28;20466;-67
2021/12/22 04:55:16;;;;;;;21.93;9.60;;;0.80;96.30;;;;;;5117284;28;20439;-67
2021/12/22 04:57:43;;;;;;;8.57;7.47;;;0.80;96.40;;;;;;5117189;28;20438;-67
2021/12/22 05:00:13;;;;;;;12.30;9.73;;;0.90;96.40;;;;;;5116815;28;20450;-67
2021/12/22 05:02:40;;;;;;;12.27;9.07;;;0.90;96.40;;;;;;5116711;28;20468;-67
2021/12/22 05:05:07;;;;;;;16.40;8.57;;;0.90;96.40;;;;;;5117141;28;20452;-67
2021/12/22 05:07:36;;;;;;;11.90;9.00;;;0.90;96.50;;;;;;5117063;28;20444;-67
2021/12/22 05:10:03;;;;;;;14.63;9.13;;;0.90;96.80;;;;;;5116929;28;20465;-67
2021/12/22 05:12:30;;;;;;;13.30;8.50;;;0.90;96.40;;;;;;5116828;28;20472;-67
2021/12/22 05:14:57;;;;;;;17.50;8.97;;;0.90;96.40;;;;;;5116854;28;20446;-67
2021/12/22 05:17:37;;;;;;;12.47;8.73;;;0.90;96.40;;;;;;5116515;28;20960;-67
2021/12/22 05:20:05;;;;;;;13.67;8.30;;;0.90;96.40;;;;;;5116853;27;20530;-67
2021/12/22 05:22:32;;;;;;;14.80;8.10;;;0.90;96.40;;;;;;5116655;28;20468;-67
2021/12/22 05:25:02;;;;;;;11.53;8.80;;;0.90;96.30;;;;;;5116710;28;20432;-67
2021/12/22 05:27:29;;;;;;;11.87;7.80;;;0.90;96.30;;;;;;5116603;28;20454;-67
2021/12/22 05:29:56;;;;;;;12.40;8.30;;;0.90;96.30;;;;;;5116500;28;20485;-67
2021/12/22 05:32:26;;;;;;;12.33;8.80;;;0.90;96.20;;;;;;5116475;28;20488;-67
2021/12/22 05:34:53;;;;;;;17.60;10.10;;;0.90;96.20;;;;;;5116501;28;20482;-67
2021/12/22 05:37:20;;;;;;;14.33;9.93;;;0.90;96.30;;;;;;5116462;27;20457;-67
2021/12/22 05:39:47;;;;;;;15.83;9.30;;;0.90;96.30;;;;;;5116366;28;20532;-67
2021/12/22 05:42:15;;;;;;;11.03;7.70;;;0.90;96.30;;;;;;5116307;28;20449;-67
2021/12/22 05:44:42;;;;;;;13.23;8.60;;;0.90;96.30;;;;;;5115985;27;20438;-67
2021/12/22 05:47:09;;;;;;;12.23;9.43;;;0.90;96.30;;;;;;5116026;28;20452;-67
2021/12/22 05:49:36;;;;;;;12.83;8.47;;;0.90;96.30;;;;;;5116114;27;20477;-67
2021/12/22 05:52:03;;;;;;;16.73;9.17;;;0.90;96.20;;;;;;5116042;28;20453;-67
2021/12/22 05:54:31;;;;;;;14.00;8.80;;;0.90;96.20;;;;;;5115761;28;20449;-67
2021/12/22 05:56:58;;;;;;;15.17;8.23;;;0.90;96.20;;;;;;5116011;28;20442;-67
2021/12/22 05:59:26;;;;;;;15.90;9.20;;;0.90;96.30;;;;;;5115606;28;20460;-67
2021/12/22 06:01:52;;;;;;;10.80;7.83;;;0.80;96.20;;;;;;5115635;28;20444;-67
2021/12/22 06:04:19;;;;;;;11.47;8.10;;;0.80;96.30;;;;;;5115551;28;20474;-67
2021/12/22 06:06:46;;;;;;;12.27;8.90;;;0.90;96.40;;;;;;5115827;28;20450;-67
2021/12/22 06:09:13;;;;;;;13.50;9.53;;;0.80;96.30;;;;;;5115417;28;20802;-67
2021/12/22 06:11:39;;;;;;;9.23;7.90;;;0.80;96.20;;;;;;5115658;28;20509;-67
2021/12/22 06:14:06;;;;;;;13.77;9.53;;;0.90;96.40;;;;;;5115693;27;20461;-67
2021/12/22 06:16:35;;;;;;;13.57;8.23;;;0.90;96.70;;;;;;5115628;28;20436;-67
2021/12/22 06:19:04;;;;;;;15.77;8.73;;;0.90;96.30;;;;;;5115558;28;20447;-67
2021/12/22 06:21:31;;;;;;;13.10;9.50;;;0.90;96.40;;;;;;5116078;27;20445;-67
2021/12/22 06:23:58;;;;;;;13.03;9.27;;;0.90;96.30;;;;;;5115481;28;20473;-67
2021/12/22 06:26:25;;;;;;;12.80;8.53;;;0.90;96.40;;;;;;5115466;28;20453;-67
2021/12/22 06:28:52;;;;;;;12.57;9.10;;;0.80;96.30;;;;;;5115430;28;20456;-67
2021/12/22 06:31:18;;;;;;;13.13;8.60;;;0.90;96.40;;;;;;5115269;28;20847;-67
2021/12/22 06:33:47;;;;;;;12.00;8.30;;;0.90;96.40;;;;;;5116107;28;20495;-67
2021/12/22 06:36:13;;;;;;;13.43;8.90;;;0.80;96.30;;;;;;5115280;28;20450;-67
2021/12/22 06:38:40;;;;;;;12.27;9.00;;;0.90;96.40;;;;;;5115232;28;20448;-67
2021/12/22 06:41:07;;;;;;;13.80;8.73;;;0.80;96.40;;;;;;5115194;28;20438;-67
2021/12/22 06:43:34;;;;;;;14.93;9.10;;;0.90;96.40;;;;;;5115017;28;20471;-67
2021/12/22 06:46:01;;;;;;;12.70;8.20;;;0.90;96.40;;;;;;5115096;28;20452;-67
2021/12/22 06:48:27;;;;;;;13.67;8.80;;;0.90;96.40;;;;;;5115088;28;20795;-67
2021/12/22 06:50:56;;;;;;;11.10;8.90;;;0.90;96.30;;;;;;5114915;28;20570;-67
2021/12/22 06:53:22;;;;;;;10.83;9.23;;;0.90;96.30;;;;;;5114866;28;20465;-67
2021/12/22 06:55:49;;;;;;;13.77;8.10;;;0.90;96.30;;;;;;5114903;28;20448;-67
2021/12/22 06:58:16;;;;;;;16.07;9.17;;;0.90;96.50;;;;;;5114468;28;20928;-67
2021/12/22 07:00:43;;;;;;;13.83;9.70;;;0.90;96.20;;;;;;5114285;28;20427;-67
2021/12/22 07:03:09;;;;;;;16.40;9.20;;;0.90;96.00;;;;;;5114750;28;20507;-67
2021/12/22 07:05:36;;;;;;;11.63;8.90;;;0.90;96.00;;;;;;5114351;28;20817;-67
2021/12/22 07:08:05;;;;;;;10.40;8.70;;;0.90;96.00;;;;;;5114680;28;20810;-67
2021/12/22 07:10:32;;;;;;;14.40;8.50;;;0.80;95.90;;;;;;5114624;28;20472;-67
2021/12/22 07:12:58;;;;;;;12.13;8.80;;;0.90;96.00;;;;;;5114566;28;20504;-67
2021/12/22 07:15:25;;;;;;;12.53;8.23;;;0.80;96.00;;;;;;5114525;28;20447;-67
2021/12/22 07:17:52;;;;;;;13.40;8.60;;;0.80;95.90;;;;;;5114509;28;20829;-67
2021/12/22 07:20:20;;;;;;;12.00;8.83;;;0.80;95.80;;;;;;5114536;28;20430;-67
2021/12/22 07:22:47;;;;;;;12.07;9.30;;;0.80;95.80;;;;;;5114365;28;20560;-67
2021/12/22 07:25:18;;;;;;;11.77;9.13;;;0.80;95.80;;;;;;5114356;28;20576;-67
2021/12/22 07:27:45;;;;;;;13.87;8.70;;;0.80;95.80;;;;;;5114372;28;20433;-67
2021/12/22 07:30:13;;;;;;;11.93;8.60;;;0.80;95.90;;;;;;5114268;28;20473;-66
2021/12/22 07:32:40;;;;;;;16.70;9.73;;;0.80;95.90;;;;;;5114365;28;20837;-67
2021/12/22 07:35:08;;;;;;;12.50;8.27;;;0.80;96.00;;;;;;5114528;28;20430;-67
2021/12/22 07:37:43;;;;;;;12.13;9.13;;;0.70;96.00;;;;;;5113826;28;20442;-68
2021/12/22 07:40:13;;;;;;;12.20;8.13;;;0.80;96.10;;;;;;5113951;27;20429;-68
2021/12/22 07:42:41;;;;;;;11.17;8.27;;;0.70;96.00;;;;;;5114036;28;20473;-68
2021/12/22 07:45:09;;;;;;;12.00;7.47;;;0.70;96.20;;;;;;5113823;28;20801;-68
2021/12/22 07:47:36;;;;;;;14.20;9.30;;;0.70;96.20;;;;;;5114069;28;20447;-68
2021/12/22 07:50:04;;;;;;;12.60;9.00;;;0.70;96.20;;;;;;5113721;28;20442;-67
2021/12/22 07:52:31;;;;;;;11.47;8.30;;;0.60;96.30;;;;;;5113970;28;20472;-68
2021/12/22 07:54:58;;;;;;;11.90;8.10;;;0.60;96.50;;;;;;5113972;28;20506;-67
2021/12/22 07:57:25;;;;;;;13.80;8.73;;;0.70;96.60;;;;;;5114032;28;20428;-67
2021/12/22 07:59:53;;;;;;;11.93;8.60;;;0.70;96.60;;;;;;5113629;28;20461;-67
2021/12/22 08:02:20;;;;;;;14.37;10.43;;;0.70;96.60;;;;;;5113504;28;20934;-68
2021/12/22 08:04:47;;;;;;;15.90;9.07;;;0.70;96.50;;;;;;5113889;28;20455;-67
2021/12/22 08:07:13;;;;;;;11.93;8.60;;;0.70;96.50;;;;;;5113901;28;20485;-67
2021/12/22 08:09:40;;;;;;;13.07;9.13;;;0.80;96.60;;;;;;5113502;28;20928;-67
2021/12/22 08:12:08;;;;;;;13.80;9.80;;;0.80;96.50;;;;;;5115798;28;20481;-68
2021/12/22 08:14:36;;;;;;;12.70;10.37;;;0.80;96.50;;;;;;5118108;27;20430;-68
2021/12/22 08:17:04;;;;;;;12.13;9.97;;;0.70;96.50;;;;;;5117990;28;20520;-67
2021/12/22 08:19:48;;;;;;;19.23;9.73;;;0.80;96.60;;;;;;5117964;28;20442;-67
2021/12/22 08:22:58;;;;;;;13.43;9.60;;;0.70;96.70;;;;;;5117522;28;20473;-67
2021/12/22 08:25:38;;;;;;;13.07;9.87;;;0.70;96.70;;;;;;5117493;28;20499;-67
2021/12/22 08:28:13;;;;;;;11.40;8.77;;;0.70;96.90;;;;;;5117726;28;20462;-67
2021/12/22 08:30:40;;;;;;;12.53;9.00;;;0.80;97.00;;;;;;5116600;28;20489;-67
2021/12/22 08:33:19;;;;;;;19.87;11.20;;;0.80;97.00;;;;;;5117617;28;20477;-67
2021/12/22 08:41:17;;;;;;;14.10;8.90;;;1.00;97.00;;;;;;5117572;28;20402;-68
2021/12/22 08:43:43;;;;;;;14.03;9.23;;;1.00;96.90;;;;;;5117410;28;20477;-68
2021/12/22 08:46:10;;;;;;;13.57;9.30;;;1.00;96.90;;;;;;5117394;28;20439;-67
2021/12/22 08:48:38;;;;;;;14.53;9.50;;;1.00;96.80;;;;;;5117363;28;20443;-67
2021/12/22 08:51:05;;;;;;;14.80;9.50;;;1.00;96.80;;;;;;5117319;28;20468;-68
2021/12/22 08:53:32;;;;;;;13.70;9.87;;;1.10;96.90;;;;;;5117277;28;20454;-68
2021/12/22 08:55:59;;;;;;;13.53;10.70;;;1.10;96.90;;;;;;5116821;28;20947;-68
2021/12/22 08:58:25;;;;;;;12.20;10.27;;;1.20;96.90;;;;;;5117000;28;20467;-67
2021/12/22 09:00:52;;;;;;;13.20;10.13;;;1.20;96.80;;;;;;5117277;27;20441;-67
2021/12/22 09:03:19;;;;;;;14.33;10.10;;;1.30;96.80;;;;;;5116842;28;20489;-67
2021/12/22 09:05:47;;;;;;;14.73;9.87;;;1.30;96.70;;;;;;5116744;28;20954;-67
2021/12/22 09:08:14;;;;;;;13.70;10.60;;;1.30;96.70;;;;;;5116921;28;20454;-67
2021/12/22 09:10:40;;;;;;;13.60;11.20;;;1.30;96.70;;;;;;5116932;28;20807;-68
2021/12/22 09:13:07;;;;;;;16.53;10.73;;;1.40;96.70;;;;;;5116640;28;20472;-67
2021/12/22 09:15:35;;;;;;;16.47;10.80;;;1.50;96.50;;;;;;5116881;28;20461;-67
2021/12/22 09:18:02;;;;;;;17.53;10.67;;;1.40;96.30;;;;;;5116519;28;20932;-67
2021/12/22 09:20:29;;;;;;;15.47;10.70;;;1.50;96.70;;;;;;5116823;28;20454;-67
2021/12/22 09:22:57;;;;;;;12.80;10.20;;;1.50;96.40;;;;;;5116154;28;20470;-68
2021/12/22 09:25:24;;;;;;;18.33;11.13;;;1.50;96.40;;;;;;5116384;28;20904;-67
2021/12/22 09:27:51;;;;;;;15.47;10.87;;;1.60;96.40;;;;;;5116691;28;20450;-67
2021/12/22 09:30:17;;;;;;;17.80;12.27;;;1.60;96.40;;;;;;5116605;28;20439;-67
2021/12/22 09:32:44;;;;;;;14.30;11.00;;;1.60;96.50;;;;;;5116060;28;20497;-67
2021/12/22 09:35:11;;;;;;;17.93;10.90;;;1.60;96.50;;;;;;5116564;28;20426;-67
2021/12/22 09:37:38;;;;;;;15.73;12.73;;;1.70;96.60;;;;;;5116150;28;20447;-67
2021/12/22 09:40:08;;;;;;;12.67;10.47;;;1.70;96.60;;;;;;5116431;28;20438;-67
2021/12/22 09:42:35;;;;;;;14.20;11.37;;;1.80;96.60;;;;;;5117389;28;20482;-67
2021/12/22 09:45:02;;;;;;;16.50;12.17;;;1.80;96.50;;;;;;5116304;28;20439;-67
2021/12/22 09:47:36;;;;;;;15.03;12.00;;;1.80;96.50;;;;;;5116280;28;20438;-67
2021/12/22 09:50:09;;;;;;;15.63;11.57;;;1.90;97.00;;;;;;5116758;28;20427;-67
2021/12/22 09:52:37;;;;;;;18.23;12.03;;;1.90;96.60;;;;;;5115996;28;20824;-67
2021/12/22 09:55:08;;;;;;;16.13;11.60;;;2.00;96.20;;;;;;5116135;27;20442;-67
2021/12/22 09:57:35;;;;;;;18.00;12.50;;;2.10;96.00;;;;;;5115750;27;20439;-67
2021/12/22 10:00:05;;;;;;;14.50;11.43;;;2.20;95.70;;;;;;5115737;27;20469;-67
2021/12/22 10:02:32;;;;;;;18.20;12.93;;;2.10;95.50;;;;;;5115946;28;20466;-67
2021/12/22 10:04:59;;;;;;;19.77;12.77;;;2.10;95.60;;;;;;5115869;28;20454;-67
2021/12/22 10:07:30;;;;;;;13.53;10.80;;;2.10;95.50;;;;;;5115886;28;20451;-67
2021/12/22 10:10:05;;;;;;;18.57;13.33;;;2.20;95.60;;;;;;5115855;27;20526;-67
2021/12/22 10:12:33;;;;;;;13.60;11.00;;;2.30;95.70;;;;;;5115343;28;21006;-67
2021/12/22 10:15:01;;;;;;;17.60;12.93;;;2.30;95.70;;;;;;5116427;28;20451;-66
2021/12/22 10:17:31;;;;;;;19.00;13.83;;;2.40;95.70;;;;;;5115678;28;20442;-66
2021/12/22 10:19:58;;;;;;;17.70;11.43;;;2.50;95.70;;;;;;5115686;28;20447;-67
2021/12/22 10:22:31;;;;;;;14.23;11.60;;;2.50;95.50;;;;;;5115235;27;20462;-67
2021/12/22 10:25:10;;;;;;;14.37;12.23;;;2.60;95.60;;;;;;5115617;28;20432;-67
2021/12/22 10:27:40;;;;;;;16.47;11.63;;;2.70;95.50;;;;;;5115166;28;20467;-67
2021/12/22 10:30:24;;;;;;;14.47;12.33;;;2.80;95.40;;;;;;5115469;28;20454;-67
2021/12/22 10:33:08;;;;;;;18.63;11.97;;;2.80;95.10;;;;;;5114896;28;20850;-67
2021/12/22 10:35:37;;;;;;;15.43;10.83;;;2.90;95.10;;;;;;5114354;28;20900;-67
2021/12/22 10:38:05;;;;;;;15.73;11.43;;;3.00;94.80;;;;;;5115474;28;20423;-67
2021/12/22 10:40:35;;;;;;;14.90;12.80;;;3.10;94.70;;;;;;5115259;28;20470;-67
2021/12/22 10:43:04;;;;;;;14.70;12.40;;;3.20;94.70;;;;;;5115160;27;20455;-67
2021/12/22 10:45:34;;;;;;;19.70;12.70;;;3.30;94.60;;;;;;5114888;28;20439;-66
2021/12/22 10:50:53;;;;;;;16.43;12.90;;;3.40;94.30;;;;;;5114731;28;20395;-66
2021/12/22 10:53:20;;;;;;;15.93;11.80;;;3.50;94.10;;;;;;5114975;28;20466;-66
2021/12/22 10:55:49;;;;;;;16.20;12.23;;;3.50;93.90;;;;;;5114968;28;20431;-66
2021/12/22 10:58:22;;;;;;;14.90;11.70;;;3.60;93.90;;;;;;5114723;28;20439;-66
2021/12/22 11:01:02;;;;;;;15.20;12.17;;;3.70;93.90;;;;;;5114653;28;20946;-66
2021/12/22 11:03:38;;;;;;;17.87;12.80;;;3.80;93.80;;;;;;5114490;28;20960;-66
2021/12/22 11:06:20;;;;;;;17.43;12.13;;;3.90;93.70;;;;;;5114832;28;20484;-64
2021/12/22 11:08:59;;;;;;;15.13;11.60;;;4.00;93.60;;;;;;5114786;27;20427;-65
2021/12/22 11:11:31;;;;;;;14.20;11.90;;;4.20;93.50;;;;;;5114601;28;20519;-65
2021/12/22 11:14:09;;;;;;;14.70;11.70;;;4.30;93.20;;;;;;5114548;28;20477;-64
2021/12/22 11:17:00;;;;;;;18.43;11.60;;;4.50;93.00;;;;;;5114311;28;20901;-64
2021/12/22 11:19:28;;;;;;;18.27;13.00;;;4.60;92.30;;;;;;5114514;28;20430;-64
2021/12/22 11:22:06;;;;;;;13.40;11.00;;;4.70;91.80;;;;;;5114422;28;20435;-64
2021/12/22 11:24:35;;;;;;;13.67;11.97;;;4.90;91.60;;;;;;5114155;28;20487;-64
2021/12/22 11:27:03;;;;;;;13.77;11.40;;;5.00;91.40;;;;;;5114370;28;20476;-64
2021/12/22 11:29:33;;;;;;;14.77;13.03;;;5.10;91.10;;;;;;5114364;28;20831;-64
2021/12/22 11:32:02;;;;;;;19.10;10.80;;;5.20;90.50;;;;;;5114232;28;20506;-64
2021/12/22 11:34:34;;;;;;;15.70;10.93;;;5.30;90.20;;;;;;5115111;28;20439;-64
2021/12/22 11:37:02;;;;;;;12.77;11.07;;;5.40;89.50;;;;;;5113940;28;21043;-64
2021/12/22 11:39:31;;;;;;;12.10;10.43;;;5.50;88.20;;;;;;5114190;27;20451;-64
2021/12/22 11:41:59;;;;;;;12.03;10.80;;;5.60;87.70;;;;;;5114074;28;20921;-64
2021/12/22 11:44:28;;;;;;;13.87;12.33;;;5.70;87.30;;;;;;5114562;28;20469;-67
2021/12/22 11:46:58;;;;;;;12.90;10.20;;;5.80;86.70;;;;;;5113611;28;20424;-66
2021/12/22 11:49:25;;;;;;;12.43;11.10;;;5.90;86.20;;;;;;5114098;28;20434;-67
2021/12/22 11:51:52;;;;;;;13.53;11.13;;;6.00;85.70;;;;;;5113935;27;20485;-67
2021/12/22 11:54:25;;;;;;;15.13;11.03;;;6.00;84.00;;;;;;5113915;28;20466;-67
2021/12/22 11:56:54;;;;;;;11.33;10.13;;;6.10;83.70;;;;;;5114016;28;20434;-67
2021/12/22 11:59:42;;;;;;;11.23;10.00;;;6.20;83.40;;;;;;5113451;28;20983;-66
2021/12/22 12:02:24;;;;;;;12.03;10.73;;;6.40;83.00;;;;;;5109229;28;20529;-66
2021/12/22 12:04:53;;;;;;;13.03;10.50;;;6.60;82.00;;;;;;5113929;28;20423;-65
2021/12/22 12:07:40;;;;;;;13.87;10.70;;;6.90;81.10;;;;;;5113861;28;20465;-65
2021/12/22 12:10:31;;;;;;;13.93;11.67;;;7.10;80.00;;;;;;5113936;28;20468;-65
2021/12/22 12:13:03;;;;;;;14.83;11.07;;;7.30;78.00;;;;;;5113704;28;20487;-65
2021/12/22 12:22:10;;;;;;;13.07;10.40;;;8.10;73.80;;;;;;5113551;28;20399;-67
2021/12/22 12:24:49;;;;;;;11.97;10.03;;;8.50;72.60;;;;;;5113823;28;20423;-68
2021/12/22 12:27:34;;;;;;;14.93;10.57;;;8.80;70.80;;;;;;5113803;28;20475;-68
2021/12/22 12:30:03;;;;;;;15.50;11.10;;;9.20;68.80;;;;;;5113868;28;20442;-69
2021/12/22 12:33:15;;;;;;;11.67;10.47;;;9.40;66.50;;;;;;5113538;28;20489;-68
2021/12/22 12:35:54;;;;;;;11.73;10.53;;;9.60;64.80;;;;;;5113698;28;20431;-68
2021/12/22 12:38:24;;;;;;;11.87;10.57;;;9.70;63.10;;;;;;5114297;28;20430;-68
2021/12/22 12:41:21;;;;;;;11.37;9.47;;;9.50;62.10;;;;;;5113643;28;20450;-68
2021/12/22 12:44:07;;;;;;;12.40;9.93;;;9.50;62.10;;;;;;5113580;28;20467;-68
2021/12/22 12:46:56;;;;;;;11.63;10.43;;;9.40;61.20;;;;;;5113234;28;20932;-69
2021/12/22 12:49:39;;;;;;;18.50;11.60;;;9.50;61.40;;;;;;5113316;28;20432;-69
2021/12/22 12:52:10;;;;;;;11.60;9.77;;;9.50;61.40;;;;;;5113361;28;20458;-69
2021/12/22 12:54:46;;;;;;;11.40;10.20;;;9.50;61.20;;;;;;5113518;28;20427;-69
2021/12/22 12:57:31;;;;;;;14.13;11.40;;;9.50;60.70;;;;;;5114070;28;20431;-69
2021/12/22 13:00:03;;;;;;;16.47;10.63;;;9.50;60.50;;;;;;5116918;28;20455;-69
2021/12/22 13:02:32;;;;;;;13.37;10.33;;;9.50;60.20;;;;;;5117137;28;20458;-69
2021/12/22 13:05:02;;;;;;;14.10;11.10;;;9.50;60.50;;;;;;5117225;28;20451;-69
2021/12/22 13:07:31;;;;;;;13.03;10.73;;;9.50;61.60;;;;;;5116849;28;20920;-69
2021/12/22 13:10:02;;;;;;;12.20;9.70;;;9.50;60.70;;;;;;5117033;28;20442;-69
2021/12/22 13:13:00;;;;;;;13.87;10.37;;;9.50;60.00;;;;;;5116609;28;20885;-69
2021/12/22 13:18:17;;;;;;;12.10;10.33;;;9.30;60.00;;;;;;5116657;28;20398;-69